createdAt,value
2022-08-01T00:00:08.770Z,98069.09
2022-08-01T00:02:36.381Z,98054.22
2022-08-01T00:05:06.044Z,98030.00
2022-08-01T00:07:33.530Z,98025.13
2022-08-01T00:09:59.931Z,98028.63
2022-08-01T00:12:29.471Z,97990.03
2022-08-01T00:14:56.971Z,97973.34
2022-08-01T00:17:23.388Z,97969.66
2022-08-01T00:19:49.807Z,97952.28
2022-08-01T00:22:16.265Z,97965.00
2022-08-01T00:24:42.818Z,97968.88
2022-08-01T00:27:09.234Z,97962.47
2022-08-01T00:30:01.179Z,97956.97
2022-08-01T00:32:22.079Z,97946.34
2022-08-01T00:34:49.123Z,97931.09
2022-08-01T00:37:16.291Z,97926.22
2022-08-01T00:39:43.572Z,97914.06
2022-08-01T00:42:12.032Z,97923.38
2022-08-01T00:44:38.911Z,97922.50
2022-08-01T00:47:06.387Z,97921.28
2022-08-01T00:49:33.606Z,97872.09
2022-08-01T00:52:00.958Z,97913.31
2022-08-01T00:54:27.929Z,97908.16
2022-08-01T00:56:57.269Z,97901.59
2022-08-01T00:59:25.980Z,97897.44
2022-08-01T01:01:52.826Z,97902.91
2022-08-01T01:04:20.807Z,97903.34
2022-08-01T01:06:58.883Z,97892.41
2022-08-01T01:09:51.102Z,97855.69
2022-08-01T01:12:31.735Z,97882.97
2022-08-01T01:15:37.990Z,97865.81
2022-08-01T01:18:10.366Z,97871.66
2022-08-01T01:20:52.927Z,97858.47
2022-08-01T01:23:19.224Z,97862.13
2022-08-01T01:26:05.669Z,97862.13
2022-08-01T01:29:09.584Z,97866.03
2022-08-01T01:31:58.667Z,97861.69
2022-08-01T01:34:28.915Z,97849.75
2022-08-01T01:36:57.711Z,97855.56
2022-08-01T01:39:26.713Z,97848.34
2022-08-01T01:41:55.680Z,97858.03
2022-08-01T01:44:22.564Z,97859.22
2022-08-01T01:46:52.179Z,97811.25
2022-08-01T01:49:23.717Z,97849.41
2022-08-01T01:52:02.284Z,97847.69
2022-08-01T01:54:34.105Z,97854.69
2022-08-01T01:57:03.143Z,97860.81
2022-08-01T01:59:32.855Z,97847.63
2022-08-01T02:02:06.061Z,97850.53
2022-08-01T02:04:37.472Z,97860.81
2022-08-01T02:07:06.834Z,97849.75
2022-08-01T02:09:35.483Z,97858.13
2022-08-01T02:12:07.934Z,97859.91
2022-08-01T02:14:36.487Z,97852.50
2022-08-01T02:17:05.096Z,97857.84
2022-08-01T02:19:36.379Z,97806.56
2022-08-01T02:22:13.257Z,97860.53
2022-08-01T02:24:53.092Z,97840.56
2022-08-01T02:27:29.553Z,97857.84
2022-08-01T02:30:08.124Z,97854.13
2022-08-01T02:33:03.831Z,97858.00
2022-08-01T02:35:35.590Z,97834.38
2022-08-01T02:38:27.027Z,97859.47
2022-08-01T02:40:55.551Z,97856.44
2022-08-01T02:43:26.200Z,97847.13
2022-08-01T02:45:55.207Z,97834.75
2022-08-01T02:48:24.223Z,97857.72
2022-08-01T02:50:53.940Z,97856.81
2022-08-01T02:53:24.136Z,97859.66
2022-08-01T02:56:12.725Z,97833.59
2022-08-01T02:58:41.510Z,97856.31
2022-08-01T03:01:10.138Z,97870.84
2022-08-01T03:03:38.213Z,97863.38
2022-08-01T03:06:05.600Z,97840.72
2022-08-01T03:08:34.273Z,97858.16
2022-08-01T03:11:02.499Z,97819.69
2022-08-01T03:13:31.393Z,97861.75
2022-08-01T03:15:59.394Z,97867.94
2022-08-01T03:18:27.749Z,97866.06
2022-08-01T03:20:57.468Z,97863.56
2022-08-01T03:23:37.769Z,97863.53
2022-08-01T03:26:05.992Z,97861.13
2022-08-01T03:28:33.468Z,97856.06
2022-08-01T03:31:01.718Z,97852.97
2022-08-01T03:33:28.229Z,97853.66
2022-08-01T03:35:55.979Z,97847.00
2022-08-01T03:38:26.835Z,97843.03
2022-08-01T03:41:12.542Z,97849.00
2022-08-01T03:43:42.677Z,97848.16
2022-08-01T03:46:14.249Z,97845.94
2022-08-01T03:48:48.057Z,97842.47
2022-08-01T03:51:15.736Z,97843.25
2022-08-01T03:53:45.471Z,97842.47
2022-08-01T03:56:13.829Z,97830.09
2022-08-01T03:58:42.809Z,97823.97
2022-08-01T04:01:15.368Z,97840.81
2022-08-01T04:03:43.603Z,97845.72
2022-08-01T04:06:11.412Z,97851.25
2022-08-01T04:08:39.477Z,97851.16
2022-08-01T04:11:06.411Z,97842.19
2022-08-01T04:13:37.039Z,97856.47
2022-08-01T04:16:05.050Z,97855.66
2022-08-01T04:18:31.535Z,97855.91
2022-08-01T04:20:58.014Z,97843.75
2022-08-01T04:23:28.744Z,97839.94
2022-08-01T04:25:56.765Z,97866.78
2022-08-01T04:28:24.438Z,97858.13
2022-08-01T04:30:59.750Z,97860.69
2022-08-01T04:33:31.028Z,97870.97
2022-08-01T04:36:02.374Z,97860.53
2022-08-01T04:38:33.423Z,97877.53
2022-08-01T04:41:08.933Z,97856.44
2022-08-01T04:43:37.461Z,97828.16
2022-08-01T04:46:04.999Z,97875.44
2022-08-01T04:48:33.202Z,97869.00
2022-08-01T04:51:00.439Z,97874.69
2022-08-01T04:53:28.016Z,97875.44
2022-08-01T04:55:56.544Z,97869.75
2022-08-01T04:58:23.377Z,97883.91
2022-08-01T05:00:49.826Z,97885.13
2022-08-01T05:03:18.899Z,97874.53
2022-08-01T05:05:45.400Z,97870.44
2022-08-01T05:08:11.949Z,97886.00
2022-08-01T05:10:39.985Z,97896.16
2022-08-01T05:13:08.748Z,97882.88
2022-08-01T05:15:37.705Z,97893.88
2022-08-01T05:18:04.526Z,97891.25
2022-08-01T05:20:30.923Z,97896.69
2022-08-01T05:22:58.177Z,97897.81
2022-08-01T05:25:36.509Z,97898.69
2022-08-01T05:28:11.142Z,97899.09
2022-08-01T05:30:40.011Z,97895.31
2022-08-01T05:33:06.416Z,97895.03
2022-08-01T05:35:48.776Z,97903.06
2022-08-01T05:38:16.376Z,97907.69
2022-08-01T05:40:42.810Z,97908.13
2022-08-01T05:43:09.272Z,97924.25
2022-08-01T05:45:36.134Z,97916.88
2022-08-01T05:48:02.550Z,97904.84
2022-08-01T05:50:29.044Z,97927.75
2022-08-01T05:52:55.448Z,97930.63
2022-08-01T05:55:22.078Z,97949.78
2022-08-01T05:57:49.304Z,97955.84
2022-08-01T06:00:17.075Z,97948.50
2022-08-01T06:02:44.072Z,97959.41
2022-08-01T06:05:13.183Z,97948.38
2022-08-01T06:07:41.277Z,97933.16
2022-08-01T06:10:09.209Z,97961.78
2022-08-01T06:12:36.533Z,97974.63
2022-08-01T06:15:05.836Z,98009.81
2022-08-01T06:17:32.663Z,97991.91
2022-08-01T06:20:00.281Z,98008.63
2022-08-01T06:22:27.266Z,98029.69
2022-08-01T06:24:54.657Z,98006.63
2022-08-01T06:27:22.230Z,97995.91
2022-08-01T06:29:53.370Z,97993.84
2022-08-01T06:32:27.921Z,97995.66
2022-08-01T06:34:55.872Z,97993.19
2022-08-01T06:37:22.839Z,97946.44
2022-08-01T06:39:50.576Z,97980.25
2022-08-01T06:42:17.405Z,98001.28
2022-08-01T06:44:43.957Z,97975.50
2022-08-01T06:47:10.357Z,97972.44
2022-08-01T06:49:37.310Z,97984.47
2022-08-01T06:52:04.908Z,97991.69
2022-08-01T06:54:32.190Z,98012.25
2022-08-01T06:56:58.602Z,98022.53
2022-08-01T06:59:25.097Z,98034.41
2022-08-01T07:01:51.583Z,98035.47
2022-08-01T07:04:18.000Z,98046.81
2022-08-01T07:06:44.420Z,98060.38
2022-08-01T07:09:14.044Z,98061.97
2022-08-01T07:11:40.980Z,98077.97
2022-08-01T07:14:07.474Z,98102.78
2022-08-01T07:16:33.845Z,98090.84
2022-08-01T07:19:00.334Z,98121.31
2022-08-01T07:21:40.536Z,98134.00
2022-08-01T07:24:13.601Z,98148.41
2022-08-01T07:26:53.660Z,98165.25
2022-08-01T07:29:22.573Z,98181.53
2022-08-01T07:31:48.960Z,98205.03
2022-08-01T07:34:16.466Z,98189.53
2022-08-01T07:36:43.946Z,98187.44
2022-08-01T07:39:10.666Z,98189.56
2022-08-01T07:41:52.653Z,98192.81
2022-08-01T07:44:23.635Z,98187.97
2022-08-01T07:46:50.034Z,98225.69
2022-08-01T07:49:16.652Z,98221.19
2022-08-01T07:51:43.635Z,98261.47
2022-08-01T07:54:33.616Z,98283.88
2022-08-01T07:57:01.628Z,98273.13
2022-08-01T07:59:28.974Z,98250.81
2022-08-01T08:01:56.766Z,98246.31
2022-08-01T08:04:23.276Z,98253.19
2022-08-01T08:06:51.724Z,98236.72
2022-08-01T08:09:18.185Z,98261.31
2022-08-01T08:11:47.840Z,98245.25
2022-08-01T08:14:15.113Z,98237.66
2022-08-01T08:16:41.966Z,98206.56
2022-08-01T08:19:08.369Z,98249.53
2022-08-01T08:21:36.317Z,98289.22
2022-08-01T08:24:26.239Z,98321.28
2022-08-01T08:26:59.927Z,98339.47
2022-08-01T08:29:28.011Z,98331.97
2022-08-01T08:31:55.764Z,98330.63
2022-08-01T08:34:23.582Z,98322.22
2022-08-01T08:36:53.164Z,98356.66
2022-08-01T08:39:20.398Z,98399.44
2022-08-01T08:41:49.120Z,98483.75
2022-08-01T08:44:17.065Z,98613.50
2022-08-01T08:46:46.167Z,98620.13
2022-08-01T08:49:17.753Z,98720.91
2022-08-01T08:51:48.194Z,98691.44
2022-08-01T08:54:17.238Z,98741.41
2022-08-01T08:56:45.010Z,98766.31
2022-08-01T08:59:14.236Z,98771.06
2022-08-01T09:01:41.511Z,98756.41
2022-08-01T09:04:08.121Z,98777.63
2022-08-01T09:06:34.824Z,98732.97
2022-08-01T09:09:01.995Z,98738.91
2022-08-01T09:11:29.146Z,98771.06
2022-08-01T09:14:14.732Z,98823.25
2022-08-01T09:16:48.618Z,98845.44
2022-08-01T09:19:16.248Z,98801.94
2022-08-01T09:22:05.713Z,98712.69
2022-08-01T09:24:33.261Z,98761.91
2022-08-01T09:27:03.312Z,98776.66
2022-08-01T09:29:38.281Z,98758.34
2022-08-01T09:32:08.496Z,98805.41
2022-08-01T09:34:43.315Z,98786.63
2022-08-01T09:37:10.844Z,98789.41
2022-08-01T09:39:41.114Z,98804.06
2022-08-01T09:42:28.898Z,98798.16
2022-08-01T09:44:58.923Z,98800.56
2022-08-01T09:47:38.910Z,98795.59
2022-08-01T09:50:10.771Z,98809.41
2022-08-01T09:52:38.120Z,98821.31
2022-08-01T09:55:08.172Z,98814.59
2022-08-01T09:57:34.729Z,98829.97
2022-08-01T10:00:04.540Z,98883.41
2022-08-01T10:02:37.786Z,98904.63
2022-08-01T10:05:10.214Z,98899.13
2022-08-01T10:07:55.704Z,98943.44
2022-08-01T10:10:29.064Z,98969.41
2022-08-01T10:12:59.502Z,98943.38
2022-08-01T10:15:37.463Z,98957.81
2022-08-01T10:18:16.092Z,98964.59
2022-08-01T10:20:43.700Z,98946.94
2022-08-01T10:23:11.577Z,98945.03
2022-08-01T10:25:46.615Z,98927.03
2022-08-01T10:28:21.314Z,98952.41
2022-08-01T10:30:49.788Z,98947.09
2022-08-01T10:33:49.687Z,98934.63
2022-08-01T10:36:03.881Z,98943.31
2022-08-01T10:38:36.193Z,98963.56
2022-08-01T10:41:06.622Z,98973.41
2022-08-01T10:43:35.578Z,98985.41
2022-08-01T10:46:04.392Z,98950.22
2022-08-01T10:48:52.217Z,98951.81
2022-08-01T10:51:21.718Z,98959.56
2022-08-01T10:53:56.825Z,98967.81
2022-08-01T10:56:27.133Z,98950.59
2022-08-01T10:59:06.339Z,98925.47
2022-08-01T11:01:38.646Z,98925.28
2022-08-01T11:04:16.554Z,98914.75
2022-08-01T11:06:51.715Z,98919.81
2022-08-01T11:09:19.034Z,98956.22
2022-08-01T11:12:13.696Z,98973.16
2022-08-01T11:15:03.505Z,98995.34
2022-08-01T11:17:48.884Z,98972.97
2022-08-01T11:20:31.327Z,98997.72
2022-08-01T11:23:07.210Z,99015.78
2022-08-01T11:26:06.755Z,99010.88
2022-08-01T11:28:32.401Z,98997.19
2022-08-01T11:31:13.917Z,99009.38
2022-08-01T11:33:45.603Z,99012.00
2022-08-01T11:36:12.912Z,99021.78
2022-08-01T11:38:46.482Z,98997.22
2022-08-01T11:41:37.311Z,99004.59
2022-08-01T11:44:16.849Z,99016.06
2022-08-01T11:46:51.929Z,99016.34
2022-08-01T11:49:38.952Z,99014.38
2022-08-01T11:52:11.012Z,99012.78
2022-08-01T11:54:41.232Z,99009.22
2022-08-01T11:57:16.300Z,99015.78
2022-08-01T12:00:02.541Z,99010.25
2022-08-01T12:02:35.127Z,99008.81
2022-08-01T12:05:05.849Z,99007.38
2022-08-01T12:07:36.852Z,98992.94
2022-08-01T12:10:09.429Z,99002.97
2022-08-01T12:12:36.776Z,98993.69
2022-08-01T12:15:09.888Z,98991.06
2022-08-01T12:17:47.056Z,99006.66
2022-08-01T12:20:31.197Z,98959.28
2022-08-01T12:23:03.748Z,98996.16
2022-08-01T12:25:30.865Z,99000.69
2022-08-01T12:28:05.069Z,99008.25
2022-08-01T12:30:32.351Z,99006.28
2022-08-01T12:32:59.279Z,99005.91
2022-08-01T12:35:27.186Z,98990.94
2022-08-01T12:37:59.053Z,98990.06
2022-08-01T12:40:31.094Z,99001.25
2022-08-01T12:43:00.154Z,98998.47
2022-08-01T12:45:35.002Z,99000.94
2022-08-01T12:48:07.708Z,98995.56
2022-08-01T12:50:34.813Z,98991.75
2022-08-01T12:53:01.979Z,98994.94
2022-08-01T12:55:34.633Z,98998.53
2022-08-01T12:58:15.814Z,99000.66
2022-08-01T13:00:45.263Z,98992.25
2022-08-01T13:03:21.400Z,99001.09
2022-08-01T13:05:55.204Z,98988.66
2022-08-01T13:08:41.336Z,98988.59
2022-08-01T13:11:16.724Z,98980.72
2022-08-01T13:13:48.958Z,98965.88
2022-08-01T13:16:30.934Z,98983.78
2022-08-01T13:19:07.723Z,98996.66
2022-08-01T13:21:52.564Z,98986.25
2022-08-01T13:24:29.033Z,98985.13
2022-08-01T13:26:59.342Z,98982.44
2022-08-01T13:29:34.426Z,98966.56
2022-08-01T13:32:13.625Z,98990.16
2022-08-01T13:35:07.120Z,98977.78
2022-08-01T13:37:34.965Z,98976.75
2022-08-01T13:40:04.388Z,98971.28
2022-08-01T13:42:30.825Z,98972.09
2022-08-01T13:44:57.260Z,98963.28
2022-08-01T13:47:31.214Z,98961.44
2022-08-01T13:50:01.628Z,98968.44
2022-08-01T13:52:28.366Z,98952.81
2022-08-01T13:54:55.220Z,98962.31
2022-08-01T13:57:22.783Z,98972.34
2022-08-01T13:59:49.346Z,98972.81
2022-08-01T14:02:15.849Z,98972.56
2022-08-01T14:04:42.865Z,98963.41
2022-08-01T14:07:14.556Z,98964.31
2022-08-01T14:09:57.845Z,98966.47
2022-08-01T14:12:29.108Z,98971.22
2022-08-01T14:14:55.536Z,98959.78
2022-08-01T14:17:22.041Z,98968.91
2022-08-01T14:19:49.176Z,98969.34
2022-08-01T14:22:16.254Z,98970.19
2022-08-01T14:24:42.882Z,98986.97
2022-08-01T14:27:09.497Z,98971.50
2022-08-01T14:30:00.217Z,98988.78
2022-08-01T14:32:28.851Z,98971.75
2022-08-01T14:34:56.657Z,98988.16
2022-08-01T14:37:23.826Z,98988.44
2022-08-01T14:39:58.846Z,98952.38
2022-08-01T14:42:25.846Z,98972.63
2022-08-01T14:44:52.779Z,98982.78
2022-08-01T14:47:21.848Z,98970.03
2022-08-01T14:49:50.415Z,98982.16
2022-08-01T14:52:17.168Z,98983.50
2022-08-01T14:54:44.500Z,98976.13
2022-08-01T14:57:11.002Z,98979.00
2022-08-01T14:59:37.941Z,98977.34
2022-08-01T15:02:04.819Z,98981.97
2022-08-01T15:04:31.773Z,98985.97
2022-08-01T15:06:58.337Z,98977.16
2022-08-01T15:09:24.776Z,98966.34
2022-08-01T15:11:51.655Z,98987.84
2022-08-01T15:14:36.701Z,98989.88
2022-08-01T15:17:03.366Z,98992.47
2022-08-01T15:19:29.894Z,98983.97
2022-08-01T15:21:56.331Z,98991.19
2022-08-01T15:24:22.714Z,98991.06
2022-08-01T15:26:49.176Z,98987.84
2022-08-01T15:29:16.788Z,98985.81
2022-08-01T15:31:43.548Z,98947.19
2022-08-01T15:34:10.257Z,98998.22
2022-08-01T15:36:37.262Z,98999.22
2022-08-01T15:39:09.855Z,98991.91
2022-08-01T15:41:36.715Z,99001.88
2022-08-01T15:44:03.897Z,99004.28
2022-08-01T15:46:30.319Z,98989.91
2022-08-01T15:48:58.864Z,98995.72
2022-08-01T15:51:26.246Z,98992.69
2022-08-01T15:53:52.639Z,99007.06
2022-08-01T15:56:19.095Z,99012.72
2022-08-01T15:58:45.609Z,99005.81
2022-08-01T16:01:12.030Z,98999.34
2022-08-01T16:03:38.627Z,99004.78
2022-08-01T16:06:05.247Z,98975.84
2022-08-01T16:08:31.817Z,99013.19
2022-08-01T16:10:59.881Z,99019.63
2022-08-01T16:13:26.320Z,99004.63
2022-08-01T16:15:52.728Z,99018.72
2022-08-01T16:18:19.141Z,98999.53
2022-08-01T16:20:46.297Z,99012.72
2022-08-01T16:23:14.305Z,99018.44
2022-08-01T16:25:40.806Z,99010.03
2022-08-01T16:28:07.524Z,99019.59
2022-08-01T16:30:33.985Z,99024.06
2022-08-01T16:33:05.516Z,99021.00
2022-08-01T16:35:45.924Z,99012.91
2022-08-01T16:38:19.247Z,99023.81
2022-08-01T16:40:48.523Z,99017.09
2022-08-01T16:43:19.693Z,99017.25
2022-08-01T16:45:47.292Z,99015.06
2022-08-01T16:48:16.079Z,99003.31
2022-08-01T16:50:43.043Z,98998.13
2022-08-01T16:53:09.630Z,99005.16
2022-08-01T16:55:49.325Z,99013.78
2022-08-01T16:58:27.779Z,98987.88
2022-08-01T17:00:57.684Z,98977.94
2022-08-01T17:03:46.991Z,98987.28
2022-08-01T17:06:12.658Z,98988.22
2022-08-01T17:08:46.772Z,98984.53
2022-08-01T17:11:14.793Z,98971.13
2022-08-01T17:13:43.731Z,98986.91
2022-08-01T17:16:13.286Z,98977.47
2022-08-01T17:18:44.504Z,98972.28
2022-08-01T17:21:12.462Z,98956.50
2022-08-01T17:23:38.975Z,98982.53
2022-08-01T17:26:05.432Z,98987.22
2022-08-01T17:28:33.062Z,98983.44
2022-08-01T17:30:59.597Z,98966.06
2022-08-01T17:33:45.457Z,98957.44
2022-08-01T17:36:14.264Z,98976.78
2022-08-01T17:38:40.738Z,98966.41
2022-08-01T17:41:07.119Z,98971.41
2022-08-01T17:43:33.524Z,98979.34
2022-08-01T17:46:00.459Z,98981.41
2022-08-01T17:48:28.709Z,98964.84
2022-08-01T17:50:55.267Z,98967.09
2022-08-01T17:53:23.880Z,98983.44
2022-08-01T17:55:53.904Z,98985.09
2022-08-01T17:58:33.748Z,98977.34
2022-08-01T18:01:10.883Z,98987.78
2022-08-01T18:03:40.992Z,98973.94
2022-08-01T18:06:10.005Z,98973.31
2022-08-01T18:08:36.654Z,98973.47
2022-08-01T18:11:05.135Z,98930.00
2022-08-01T18:13:31.842Z,98973.13
2022-08-01T18:15:59.100Z,98965.53
2022-08-01T18:18:33.060Z,98937.78
2022-08-01T18:21:03.019Z,98959.91
2022-08-01T18:23:30.172Z,98958.09
2022-08-01T18:25:56.766Z,98948.03
2022-08-01T18:28:31.367Z,98899.09
2022-08-01T18:31:01.945Z,98937.03
2022-08-01T18:33:28.572Z,98932.53
2022-08-01T18:36:01.823Z,98924.41
2022-08-01T18:38:32.920Z,98929.75
2022-08-01T18:41:00.017Z,98932.31
2022-08-01T18:43:26.424Z,98924.69
2022-08-01T18:45:52.936Z,98919.66
2022-08-01T18:48:19.318Z,98933.19
2022-08-01T18:50:45.756Z,98932.09
2022-08-01T18:53:12.136Z,98928.75
2022-08-01T18:55:38.667Z,98916.25
2022-08-01T18:58:05.285Z,98920.56
2022-08-01T19:00:31.845Z,98919.81
2022-08-01T19:02:59.022Z,98915.81
2022-08-01T19:05:25.411Z,98899.06
2022-08-01T19:08:06.120Z,98909.88
2022-08-01T19:10:35.433Z,98915.09
2022-08-01T19:13:02.302Z,98905.63
2022-08-01T19:15:28.784Z,98903.53
2022-08-01T19:17:55.183Z,98917.44
2022-08-01T19:20:21.642Z,98917.88
2022-08-01T19:22:48.028Z,98866.69
2022-08-01T19:25:15.366Z,98902.91
2022-08-01T19:27:47.577Z,98908.34
2022-08-01T19:30:15.110Z,98902.75
2022-08-01T19:32:46.324Z,98898.00
2022-08-01T19:35:15.169Z,98860.81
2022-08-01T19:37:52.574Z,98909.81
2022-08-01T19:40:26.244Z,98918.06
2022-08-01T19:42:55.906Z,98903.63
2022-08-01T19:45:22.861Z,98920.16
2022-08-01T19:47:55.934Z,98917.53
2022-08-01T19:50:23.727Z,98897.53
2022-08-01T19:52:52.021Z,98872.22
2022-08-01T19:55:18.915Z,98869.16
2022-08-01T19:57:59.391Z,98846.41
2022-08-01T20:00:37.066Z,98849.72
2022-08-01T20:03:04.321Z,98855.09
2022-08-01T20:05:30.924Z,98845.81
2022-08-01T20:07:58.570Z,98855.53
2022-08-01T20:10:25.112Z,98855.09
2022-08-01T20:12:53.090Z,98870.41
2022-08-01T20:15:21.794Z,98857.41
2022-08-01T20:17:48.222Z,98862.09
2022-08-01T20:20:14.799Z,98869.38
2022-08-01T20:22:41.705Z,98858.00
2022-08-01T20:25:09.531Z,98867.94
2022-08-01T20:27:38.772Z,98840.06
2022-08-01T20:30:08.644Z,98820.03
2022-08-01T20:32:39.876Z,98797.72
2022-08-01T20:35:07.830Z,98804.13
2022-08-01T20:38:01.273Z,98783.00
2022-08-01T20:40:26.729Z,98797.28
2022-08-01T20:42:55.570Z,98806.00
2022-08-01T20:45:23.846Z,98801.00
2022-08-01T20:47:50.826Z,98786.09
2022-08-01T20:50:52.800Z,98791.88
2022-08-01T20:53:22.683Z,98797.69
2022-08-01T20:55:54.378Z,98781.56
2022-08-01T20:58:33.517Z,98784.88
2022-08-01T21:01:02.663Z,98766.28
2022-08-01T21:03:43.115Z,98768.31
2022-08-01T21:06:14.606Z,98769.97
2022-08-01T21:08:44.677Z,98765.22
2022-08-01T21:11:20.118Z,98707.78
2022-08-01T21:13:48.159Z,98743.72
2022-08-01T21:16:26.478Z,98730.72
2022-08-01T21:19:21.166Z,98733.00
2022-08-01T21:21:51.195Z,98731.75
2022-08-01T21:24:19.359Z,98724.91
2022-08-01T21:26:46.867Z,98723.25
2022-08-01T21:29:14.130Z,98720.59
2022-08-01T21:31:42.000Z,98722.03
2022-08-01T21:34:12.369Z,98711.69
2022-08-01T21:36:43.974Z,98716.22
2022-08-01T21:39:10.560Z,98705.03
2022-08-01T21:42:03.465Z,98710.88
2022-08-01T21:44:29.176Z,98712.25
2022-08-01T21:46:59.253Z,98700.44
2022-08-01T21:49:26.108Z,98696.72
2022-08-01T21:52:23.449Z,98680.38
2022-08-01T21:55:00.502Z,98670.91
2022-08-01T21:57:38.966Z,98663.28
2022-08-01T22:00:07.720Z,98648.84
2022-08-01T22:02:58.782Z,98650.09
2022-08-01T22:05:49.510Z,98647.97
2022-08-01T22:08:16.825Z,98618.63
2022-08-01T22:10:43.510Z,98635.63
2022-08-01T22:13:11.424Z,98637.66
2022-08-01T22:15:44.423Z,98638.88
2022-08-01T22:18:12.065Z,98621.75
2022-08-01T22:20:39.232Z,98624.66
2022-08-01T22:23:06.483Z,98612.34
2022-08-01T22:25:33.415Z,98617.34
2022-08-01T22:28:06.611Z,98595.56
2022-08-01T22:30:41.589Z,98569.66
2022-08-01T22:33:16.232Z,98529.34
2022-08-01T22:35:52.806Z,98565.13
2022-08-01T22:38:22.402Z,98541.00
2022-08-01T22:40:54.228Z,98562.25
2022-08-01T22:43:30.249Z,98549.44
2022-08-01T22:46:17.074Z,98537.88
2022-08-01T22:48:52.789Z,98519.47
2022-08-01T22:51:56.018Z,98454.22
2022-08-01T22:54:29.151Z,98468.94
2022-08-01T22:56:57.176Z,98473.91
2022-08-01T22:59:42.675Z,98474.97
2022-08-01T23:02:14.489Z,98468.38
2022-08-01T23:04:47.470Z,98472.91
2022-08-01T23:07:20.912Z,98451.44
2022-08-01T23:09:54.954Z,98469.59
2022-08-01T23:12:26.769Z,98460.97
2022-08-01T23:14:55.551Z,98463.81
2022-08-01T23:17:26.900Z,98443.94
2022-08-01T23:19:57.175Z,98442.31
2022-08-01T23:22:27.651Z,98418.00
2022-08-01T23:25:04.600Z,98428.47
2022-08-01T23:27:57.835Z,98422.91
2022-08-01T23:30:29.033Z,98417.28
2022-08-01T23:32:56.523Z,98416.66
2022-08-01T23:35:24.176Z,98405.75
2022-08-01T23:37:51.380Z,98406.59
2022-08-01T23:40:18.767Z,98410.84
2022-08-01T23:42:46.091Z,98399.75
2022-08-01T23:45:12.576Z,98379.94
2022-08-01T23:47:39.091Z,98397.84
2022-08-01T23:50:07.741Z,98386.44
2022-08-01T23:52:34.749Z,98380.44
2022-08-01T23:55:14.930Z,98377.31
2022-08-01T23:57:42.858Z,98378.53
